createdAt,value
2022-10-19T00:00:47.955Z,102181.66
2022-10-19T00:03:15.771Z,102185.28
2022-10-19T00:05:44.585Z,102197.53
2022-10-19T00:08:10.995Z,102165.34
2022-10-19T00:10:40.282Z,102169.19
2022-10-19T00:13:06.719Z,102172.19
2022-10-19T00:15:33.157Z,102192.94
2022-10-19T00:17:59.580Z,102176.88
2022-10-19T00:20:26.016Z,102157.88
2022-10-19T00:22:52.468Z,102180.47
2022-10-19T00:25:18.928Z,102167.97
2022-10-19T00:27:45.401Z,102160.91
2022-10-19T00:30:11.848Z,102188.72
2022-10-19T00:32:38.284Z,102174.56
2022-10-19T00:35:05.049Z,102170.91
2022-10-19T00:37:31.593Z,102151.63
2022-10-19T00:39:58.099Z,102154.47
2022-10-19T00:42:24.946Z,102188.91
2022-10-19T00:44:51.285Z,102195.34
2022-10-19T00:47:20.719Z,102193.88
2022-10-19T00:49:47.113Z,102189.38
2022-10-19T00:52:17.080Z,102171.78
2022-10-19T00:54:47.365Z,102165.88
2022-10-19T00:57:14.990Z,102189.47
2022-10-19T00:59:45.105Z,102178.16
2022-10-19T01:02:11.888Z,102184.00
2022-10-19T01:04:42.005Z,102180.47
2022-10-19T01:07:09.146Z,102164.56
2022-10-19T01:09:35.669Z,102133.03
2022-10-19T01:12:40.741Z,102200.28
2022-10-19T01:15:29.205Z,102193.72
2022-10-19T01:18:07.717Z,102198.75
2022-10-19T01:20:36.991Z,102188.91
2022-10-19T01:23:28.287Z,102190.13
2022-10-19T01:26:13.326Z,102188.22
2022-10-19T01:29:10.939Z,102157.09
2022-10-19T01:32:00.013Z,102177.13
2022-10-19T01:34:34.505Z,102178.16
2022-10-19T01:37:24.466Z,102149.44
2022-10-19T01:40:02.042Z,102164.41
2022-10-19T01:42:48.657Z,102148.75
2022-10-19T01:45:17.550Z,102174.50
2022-10-19T01:48:03.844Z,102147.25
2022-10-19T01:50:40.982Z,102159.31
2022-10-19T01:53:10.777Z,102113.19
2022-10-19T01:55:42.700Z,102133.72
2022-10-19T01:58:13.196Z,102097.56
2022-10-19T02:00:43.820Z,102132.63
2022-10-19T02:03:11.986Z,102145.84
2022-10-19T02:05:40.598Z,102126.72
2022-10-19T02:08:12.488Z,102135.41
2022-10-19T02:10:41.601Z,102152.09
2022-10-19T02:13:09.278Z,102106.28
2022-10-19T02:15:38.576Z,102153.41
2022-10-19T02:18:07.042Z,102126.97
2022-10-19T02:20:35.278Z,102160.50
2022-10-19T02:23:04.756Z,102146.03
2022-10-19T02:25:31.523Z,102147.91
2022-10-19T02:27:58.223Z,102134.84
2022-10-19T02:30:24.727Z,102102.75
2022-10-19T02:32:51.575Z,102137.88
2022-10-19T02:35:18.279Z,102116.97
2022-10-19T02:37:45.175Z,102135.03
2022-10-19T02:40:12.516Z,102144.25
2022-10-19T02:42:44.228Z,102111.56
2022-10-19T02:45:19.805Z,102118.97
2022-10-19T02:48:01.034Z,102102.19
2022-10-19T02:50:27.873Z,102101.88
2022-10-19T02:52:54.370Z,102101.31
2022-10-19T02:55:20.916Z,102107.53
2022-10-19T02:57:47.370Z,102110.81
2022-10-19T03:00:13.869Z,102082.31
2022-10-19T03:02:40.347Z,102115.81
2022-10-19T03:05:08.334Z,102077.91
2022-10-19T03:07:37.587Z,102103.19
2022-10-19T03:10:06.958Z,102131.75
2022-10-19T03:12:33.418Z,102075.94
2022-10-19T03:15:02.082Z,102072.25
2022-10-19T03:17:28.520Z,102079.47
2022-10-19T03:19:54.982Z,102092.25
2022-10-19T03:22:21.394Z,102048.25
2022-10-19T03:24:47.887Z,102023.41
2022-10-19T03:27:14.553Z,102091.84
2022-10-19T03:29:40.983Z,102059.59
2022-10-19T03:32:07.722Z,102102.34
2022-10-19T03:34:34.176Z,102048.00
2022-10-19T03:37:00.650Z,102052.66
2022-10-19T03:39:27.194Z,102040.31
2022-10-19T03:41:56.010Z,101983.28
2022-10-19T03:44:24.679Z,102013.94
2022-10-19T03:46:53.498Z,102023.59
2022-10-19T03:49:21.905Z,102032.94
2022-10-19T03:51:50.989Z,102045.16
2022-10-19T03:54:22.516Z,102057.09
2022-10-19T03:56:52.831Z,102069.00
2022-10-19T03:59:19.525Z,102058.78
2022-10-19T04:01:46.360Z,102020.50
2022-10-19T04:04:16.785Z,102121.97
2022-10-19T04:06:46.204Z,102098.13
2022-10-19T04:09:13.753Z,102120.09
2022-10-19T04:11:40.266Z,102131.09
2022-10-19T04:14:06.875Z,102074.13
2022-10-19T04:16:33.673Z,102092.56
2022-10-19T04:19:00.426Z,102078.94
2022-10-19T04:21:48.100Z,102127.38
2022-10-19T04:24:17.481Z,102102.06
2022-10-19T04:26:46.829Z,102103.50
2022-10-19T04:29:14.056Z,102065.59
2022-10-19T04:31:40.854Z,102099.06
2022-10-19T04:34:07.901Z,102127.22
2022-10-19T04:36:34.793Z,102095.41
2022-10-19T04:39:01.282Z,102076.25
2022-10-19T04:41:27.731Z,102114.19
2022-10-19T04:44:00.789Z,102020.75
2022-10-19T04:46:28.648Z,102116.16
2022-10-19T04:48:59.335Z,102125.94
2022-10-19T04:51:35.780Z,101963.16
2022-10-19T04:54:03.340Z,102088.59
2022-10-19T04:56:32.139Z,102084.06
2022-10-19T04:58:59.987Z,102135.72
2022-10-19T05:01:28.844Z,102034.38
2022-10-19T05:06:24.516Z,102097.69
2022-10-19T05:08:51.009Z,102070.56
2022-10-19T05:11:18.586Z,102120.66
2022-10-19T05:13:45.895Z,102097.66
2022-10-19T05:16:15.393Z,102086.03
2022-10-19T05:18:42.020Z,102112.16
2022-10-19T05:21:13.586Z,102070.56
2022-10-19T05:23:41.984Z,102043.19
2022-10-19T05:26:14.514Z,102111.47
2022-10-19T05:28:41.221Z,102094.41
2022-10-19T05:31:19.401Z,102111.75
2022-10-19T05:33:46.426Z,102049.00
2022-10-19T05:36:21.211Z,102040.47
2022-10-19T05:38:49.855Z,102109.88
2022-10-19T05:41:17.390Z,102103.66
2022-10-19T05:43:43.985Z,102094.97
2022-10-19T05:46:14.786Z,102025.00
2022-10-19T05:48:41.401Z,102015.91
2022-10-19T05:51:11.303Z,102085.28
2022-10-19T05:56:06.826Z,102053.06
2022-10-19T05:58:34.083Z,102063.88
2022-10-19T06:01:02.915Z,102097.94
2022-10-19T06:03:30.053Z,102098.47
2022-10-19T06:05:57.366Z,102104.59
2022-10-19T06:08:24.797Z,102007.66
2022-10-19T06:10:51.559Z,102031.06
2022-10-19T06:13:19.493Z,102098.75
2022-10-19T06:15:50.772Z,102099.28
2022-10-19T06:18:17.407Z,101987.47
2022-10-19T06:20:48.340Z,102019.53
2022-10-19T06:23:14.828Z,102035.28
2022-10-19T06:25:41.566Z,102087.66
2022-10-19T06:28:12.547Z,102081.16
2022-10-19T06:30:42.525Z,102040.56
2022-10-19T06:33:09.012Z,102115.78
2022-10-19T06:35:35.530Z,102074.34
2022-10-19T06:38:01.986Z,102081.16
2022-10-19T06:40:28.540Z,102141.59
2022-10-19T06:42:58.552Z,102131.66
2022-10-19T06:45:25.137Z,102111.78
2022-10-19T06:47:51.874Z,102113.06
2022-10-19T06:50:23.050Z,102031.63
2022-10-19T06:52:49.537Z,102061.84
2022-10-19T06:55:17.775Z,102066.41
2022-10-19T06:57:45.147Z,102110.09
2022-10-19T07:00:14.402Z,102014.00
2022-10-19T07:02:43.774Z,102114.91
2022-10-19T07:05:10.551Z,102068.09
2022-10-19T07:07:40.001Z,102040.84
2022-10-19T07:10:08.962Z,102119.75
2022-10-19T07:12:35.472Z,102048.94
2022-10-19T07:15:12.931Z,102073.47
2022-10-19T07:17:39.501Z,101963.25
2022-10-19T07:20:06.466Z,102040.41
2022-10-19T07:22:33.043Z,102035.97
2022-10-19T07:24:59.607Z,101999.69
2022-10-19T07:27:26.122Z,102067.75
2022-10-19T07:29:52.660Z,102052.84
2022-10-19T07:32:19.263Z,102076.22
2022-10-19T07:34:51.372Z,102066.06
2022-10-19T07:37:18.144Z,102006.72
2022-10-19T07:39:51.154Z,102135.53
2022-10-19T07:42:17.704Z,101983.31
2022-10-19T07:44:46.432Z,102047.81
2022-10-19T07:47:15.503Z,102031.38
2022-10-19T07:49:42.086Z,102062.72
2022-10-19T07:52:11.290Z,102133.53
2022-10-19T07:54:41.189Z,101967.28
2022-10-19T07:57:07.820Z,102020.91
2022-10-19T07:59:38.039Z,102022.63
2022-10-19T08:02:05.074Z,102064.84
2022-10-19T08:04:58.920Z,102101.59
2022-10-19T08:07:21.311Z,102027.44
2022-10-19T08:09:54.279Z,102059.88
2022-10-19T08:12:21.499Z,102002.41
2022-10-19T08:14:48.338Z,101959.88
2022-10-19T08:17:17.523Z,101964.66
2022-10-19T08:19:50.914Z,101958.97
2022-10-19T08:22:18.862Z,102038.63
2022-10-19T08:24:45.591Z,102050.53
2022-10-19T08:27:12.275Z,102069.28
2022-10-19T08:29:38.885Z,102047.16
2022-10-19T08:32:05.480Z,102068.34
2022-10-19T08:34:39.894Z,102045.13
2022-10-19T08:50:42.401Z,101992.31
2022-10-19T08:53:16.756Z,102071.13
2022-10-19T08:56:04.907Z,102080.31
2022-10-19T08:58:54.913Z,102076.16
2022-10-19T09:01:48.907Z,102045.91
2022-10-19T09:04:25.175Z,102072.69
2022-10-19T09:06:58.046Z,102077.69
2022-10-19T09:09:25.840Z,102006.72
2022-10-19T09:11:56.483Z,102066.88
2022-10-19T09:14:31.797Z,102004.06
2022-10-19T09:17:03.771Z,101925.22
2022-10-19T09:19:36.829Z,101998.66
2022-10-19T09:22:32.192Z,101900.59
2022-10-19T09:25:24.803Z,102065.28
2022-10-19T09:28:21.511Z,101934.91
2022-10-19T09:30:51.544Z,102000.41
2022-10-19T09:33:36.444Z,101889.47
2022-10-19T09:36:10.410Z,101930.59
2022-10-19T09:38:46.073Z,101966.72
2022-10-19T09:41:33.935Z,101980.69
2022-10-19T09:44:03.696Z,101964.06
2022-10-19T09:46:31.485Z,102062.22
2022-10-19T09:49:04.027Z,102027.41
2022-10-19T09:51:52.426Z,101995.50
2022-10-19T09:54:37.335Z,102041.22
2022-10-19T09:57:05.936Z,101938.94
2022-10-19T09:59:39.210Z,101949.28
2022-10-19T10:02:06.283Z,102050.63
2022-10-19T10:04:36.426Z,101983.03
2022-10-19T10:07:05.080Z,101927.44
2022-10-19T10:09:48.990Z,102053.53
2022-10-19T10:12:16.195Z,101893.72
2022-10-19T10:14:50.955Z,101885.59
2022-10-19T10:17:35.987Z,101884.97
2022-10-19T10:20:20.375Z,101912.75
2022-10-19T10:23:29.279Z,101922.31
2022-10-19T10:25:57.098Z,102026.47
2022-10-19T10:28:27.589Z,102026.28
2022-10-19T10:31:13.626Z,101963.63
2022-10-19T10:33:46.202Z,101949.53
2022-10-19T10:36:13.259Z,101924.28
2022-10-19T10:38:46.851Z,101986.97
2022-10-19T10:46:37.125Z,102000.78
2022-10-19T10:49:18.774Z,101987.91
2022-10-19T10:51:52.887Z,102006.13
2022-10-19T10:54:30.666Z,101925.50
2022-10-19T10:57:06.800Z,101992.06
2022-10-19T10:59:43.125Z,101906.75
2022-10-19T11:02:30.743Z,101938.16
2022-10-19T11:05:13.161Z,101986.66
2022-10-19T11:07:44.829Z,101946.09
2022-10-19T11:10:21.682Z,101941.38
2022-10-19T11:12:56.247Z,101867.91
2022-10-19T11:18:13.933Z,101908.13
2022-10-19T11:20:51.255Z,101872.34
2022-10-19T11:23:54.007Z,101946.28
2022-10-19T11:26:26.713Z,101950.69
2022-10-19T11:29:21.574Z,101882.50
2022-10-19T11:31:51.251Z,101906.91
2022-10-19T11:34:46.630Z,101932.00
2022-10-19T11:38:17.503Z,101890.28
2022-10-19T11:40:54.144Z,101874.69
2022-10-19T11:43:41.326Z,101865.88
2022-10-19T11:46:30.112Z,101849.25
2022-10-19T11:49:01.714Z,101918.50
2022-10-19T11:51:53.345Z,101922.75
2022-10-19T11:54:33.274Z,101857.81
2022-10-19T11:57:08.385Z,101907.06
2022-10-19T12:00:00.225Z,101853.19
2022-10-19T12:02:54.038Z,101898.88
2022-10-19T12:05:46.749Z,101889.22
2022-10-19T12:08:41.762Z,101884.75
2022-10-19T12:11:27.375Z,101880.66
2022-10-19T12:14:03.075Z,101804.88
2022-10-19T12:16:40.361Z,101870.53
2022-10-19T12:19:26.298Z,101812.78
2022-10-19T12:22:01.513Z,101827.16
2022-10-19T12:24:32.772Z,101801.31
2022-10-19T12:27:06.044Z,101835.13
2022-10-19T12:29:41.853Z,101756.94
2022-10-19T12:32:14.407Z,101837.91
2022-10-19T12:35:03.764Z,101804.28
2022-10-19T12:37:42.811Z,101837.41
2022-10-19T12:40:27.874Z,101835.84
2022-10-19T12:43:08.926Z,101770.84
2022-10-19T12:45:51.995Z,101762.50
2022-10-19T12:48:32.508Z,101819.75
2022-10-19T12:51:03.045Z,101762.84
2022-10-19T12:53:44.515Z,101776.84
2022-10-19T12:56:13.534Z,101803.94
2022-10-19T12:58:56.481Z,101765.69
2022-10-19T13:01:28.074Z,101734.25
2022-10-19T13:04:16.758Z,101787.41
2022-10-19T13:07:12.796Z,101790.44
2022-10-19T13:09:49.204Z,101783.19
2022-10-19T13:12:21.298Z,101775.22
2022-10-19T13:15:13.339Z,101765.00
2022-10-19T13:17:52.257Z,101700.69
2022-10-19T13:20:18.831Z,101767.19
2022-10-19T13:22:50.975Z,101731.66
2022-10-19T13:25:35.021Z,101755.97
2022-10-19T13:28:07.616Z,101751.69
2022-10-19T13:31:03.423Z,101745.88
2022-10-19T13:33:46.481Z,101742.22
2022-10-19T13:36:13.974Z,101751.06
2022-10-19T13:38:55.841Z,101737.22
2022-10-19T13:41:27.979Z,101670.97
2022-10-19T13:44:12.102Z,101620.38
2022-10-19T13:46:53.994Z,101729.22
2022-10-19T13:49:41.569Z,101731.75
2022-10-19T13:52:47.490Z,101732.63
2022-10-19T13:55:28.527Z,101656.97
2022-10-19T13:58:32.582Z,101724.25
2022-10-19T14:01:21.702Z,101679.72
2022-10-19T14:04:10.630Z,101658.31
2022-10-19T14:06:47.295Z,101715.16
2022-10-19T14:09:35.674Z,101719.94
2022-10-19T14:12:18.334Z,101706.81
2022-10-19T14:14:45.413Z,101684.00
2022-10-19T14:17:24.576Z,101714.09
2022-10-19T14:19:56.985Z,101712.88
2022-10-19T14:22:36.070Z,101691.75
2022-10-19T14:25:14.759Z,101709.13
2022-10-19T14:27:41.629Z,101697.47
2022-10-19T14:30:22.539Z,101664.56
2022-10-19T14:32:49.747Z,101678.72
2022-10-19T14:35:25.622Z,101680.50
2022-10-19T14:37:54.890Z,101651.59
2022-10-19T14:40:26.355Z,101689.66
2022-10-19T14:42:56.865Z,101651.09
2022-10-19T14:45:29.517Z,101664.59
2022-10-19T14:47:59.030Z,101669.75
2022-10-19T14:50:31.318Z,101671.81
2022-10-19T14:53:18.040Z,101636.19
2022-10-19T14:55:45.528Z,101633.47
2022-10-19T14:58:19.250Z,101621.72
2022-10-19T15:00:49.191Z,101637.63
2022-10-19T15:03:26.412Z,101653.84
2022-10-19T15:06:00.347Z,101619.34
2022-10-19T15:08:39.951Z,101561.97
2022-10-19T15:11:07.865Z,101649.50
2022-10-19T15:13:41.472Z,101547.25
2022-10-19T15:24:24.180Z,101638.94
2022-10-19T15:27:58.562Z,101625.25
2022-10-19T15:30:45.618Z,101505.53
2022-10-19T15:33:15.364Z,101601.69
2022-10-19T15:35:44.695Z,101576.31
2022-10-19T15:38:15.909Z,101627.13
2022-10-19T15:40:49.177Z,101509.97
2022-10-19T15:43:30.987Z,101625.53
2022-10-19T15:46:05.171Z,101623.63
2022-10-19T15:48:41.942Z,101614.50
2022-10-19T15:51:23.476Z,101613.41
2022-10-19T15:53:58.975Z,101605.53
2022-10-19T15:56:27.588Z,101574.78
2022-10-19T15:59:04.495Z,101583.03
2022-10-19T16:01:36.433Z,101593.53
2022-10-19T16:04:02.992Z,101543.47
2022-10-19T16:06:32.198Z,101610.78
2022-10-19T16:09:00.387Z,101587.53
2022-10-19T16:11:31.784Z,101546.75
2022-10-19T16:13:59.451Z,101516.78
2022-10-19T16:16:32.354Z,101508.69
2022-10-19T16:19:00.244Z,101540.38
2022-10-19T16:21:30.465Z,101518.25
2022-10-19T16:23:57.199Z,101572.66
2022-10-19T16:26:26.037Z,101532.22
2022-10-19T16:28:54.352Z,101531.78
2022-10-19T16:31:21.558Z,101534.75
2022-10-19T16:33:48.135Z,101524.16
2022-10-19T16:36:14.800Z,101487.38
2022-10-19T16:38:41.380Z,101510.19
2022-10-19T16:41:10.577Z,101541.97
2022-10-19T16:43:39.661Z,101464.41
2022-10-19T16:46:07.752Z,101462.72
2022-10-19T16:48:38.193Z,101506.38
2022-10-19T16:51:07.682Z,101564.84
2022-10-19T16:53:34.478Z,101576.94
2022-10-19T16:56:12.715Z,101548.13
2022-10-19T16:58:40.610Z,101453.59
2022-10-19T17:01:17.629Z,101401.63
2022-10-19T17:03:48.482Z,101450.47
2022-10-19T17:06:17.281Z,101505.00
2022-10-19T17:09:14.761Z,101474.16
2022-10-19T17:11:35.965Z,101550.78
2022-10-19T17:14:08.482Z,101563.53
2022-10-19T17:16:36.892Z,101557.13
2022-10-19T17:19:05.656Z,101581.63
2022-10-19T17:21:40.999Z,101570.63
2022-10-19T17:24:14.693Z,101515.09
2022-10-19T17:26:47.662Z,101562.22
2022-10-19T17:29:14.313Z,101524.75
2022-10-19T17:31:41.805Z,101573.72
2022-10-19T17:34:09.077Z,101519.19
2022-10-19T17:39:17.842Z,101563.28
2022-10-19T17:41:45.827Z,101557.94
2022-10-19T17:44:12.533Z,101568.91
2022-10-19T17:46:41.415Z,101556.81
2022-10-19T17:49:08.062Z,101532.31
2022-10-19T17:51:36.000Z,101568.66
2022-10-19T17:54:07.750Z,101482.00
2022-10-19T17:56:35.230Z,101567.44
2022-10-19T17:59:11.564Z,101460.84
2022-10-19T18:01:38.387Z,101486.28
2022-10-19T18:04:06.458Z,101570.25
2022-10-19T18:06:35.445Z,101507.22
2022-10-19T18:09:05.559Z,101555.81
2022-10-19T18:11:44.656Z,101553.84
2022-10-19T18:14:14.691Z,101570.13
2022-10-19T18:16:54.621Z,101575.91
2022-10-19T18:19:25.783Z,101576.47
2022-10-19T18:21:53.104Z,101514.94
2022-10-19T18:24:21.211Z,101570.06
2022-10-19T18:26:49.689Z,101486.56
2022-10-19T18:29:20.815Z,101557.19
2022-10-19T18:31:53.539Z,101548.09
2022-10-19T18:34:25.212Z,101486.25
2022-10-19T18:36:52.563Z,101469.69
2022-10-19T18:39:21.489Z,101505.19
2022-10-19T18:41:52.219Z,101483.22
2022-10-19T18:44:23.524Z,101498.81
2022-10-19T18:46:53.069Z,101475.47
2022-10-19T18:49:19.600Z,101480.22
2022-10-19T18:51:52.351Z,101512.00
2022-10-19T18:54:31.965Z,101497.16
2022-10-19T18:56:58.653Z,101434.31
2022-10-19T18:59:25.306Z,101538.09
2022-10-19T19:01:54.878Z,101478.28
2022-10-19T19:04:23.452Z,101478.91
2022-10-19T19:06:49.933Z,101455.44
2022-10-19T19:09:18.747Z,101447.84
2022-10-19T19:11:45.572Z,101420.44
2022-10-19T19:14:15.438Z,101511.81
2022-10-19T19:16:43.483Z,101510.50
2022-10-19T19:19:13.254Z,101478.28
2022-10-19T19:21:43.609Z,101476.38
2022-10-19T19:24:13.401Z,101513.56
2022-10-19T19:26:47.418Z,101434.88
2022-10-19T19:29:14.476Z,101506.97
2022-10-19T19:31:41.235Z,101370.56
2022-10-19T19:34:09.391Z,101417.47
2022-10-19T19:36:38.189Z,101473.22
2022-10-19T19:39:05.963Z,101426.25
2022-10-19T19:41:34.056Z,101405.47
2022-10-19T19:44:01.080Z,101372.56
2022-10-19T19:46:27.967Z,101426.44
2022-10-19T19:49:00.910Z,101494.84
2022-10-19T19:51:28.914Z,101485.53
2022-10-19T19:53:55.855Z,101432.00
2022-10-19T19:56:22.567Z,101424.72
2022-10-19T19:58:54.633Z,101468.31
2022-10-19T20:01:21.860Z,101463.59
2022-10-19T20:03:48.711Z,101412.56
2022-10-19T20:06:25.784Z,101403.47
2022-10-19T20:08:58.920Z,101463.28
2022-10-19T20:11:29.438Z,101482.16
2022-10-19T20:13:56.453Z,101419.66
2022-10-19T20:16:29.331Z,101463.09
2022-10-19T20:19:00.842Z,101475.56
2022-10-19T20:21:27.709Z,101450.91
2022-10-19T20:23:54.415Z,101449.94
2022-10-19T20:26:23.187Z,101431.19
2022-10-19T20:28:50.214Z,101412.78
2022-10-19T20:31:17.177Z,101463.81
2022-10-19T20:33:44.906Z,101443.53
2022-10-19T20:36:12.668Z,101376.47
2022-10-19T20:38:40.307Z,101452.81
2022-10-19T20:41:09.068Z,101404.03
2022-10-19T20:43:38.302Z,101388.47
2022-10-19T20:46:08.285Z,101426.00
2022-10-19T20:48:34.835Z,101420.91
2022-10-19T20:51:16.569Z,101443.53
2022-10-19T20:53:46.316Z,101391.66
2022-10-19T20:56:15.063Z,101431.00
2022-10-19T20:58:43.500Z,101389.13
2022-10-19T21:01:16.105Z,101399.25
2022-10-19T21:03:48.018Z,101432.03
2022-10-19T21:06:16.126Z,101419.84
2022-10-19T21:08:42.721Z,101381.38
2022-10-19T21:11:23.620Z,101376.97
2022-10-19T21:13:54.837Z,101412.44
2022-10-19T21:16:23.123Z,101418.50
2022-10-19T21:18:50.383Z,101422.19
2022-10-19T21:21:29.000Z,101427.97
2022-10-19T21:24:06.472Z,101394.53
2022-10-19T21:26:34.999Z,101404.31
2022-10-19T21:29:06.217Z,101424.59
2022-10-19T21:31:32.824Z,101376.47
2022-10-19T21:33:59.316Z,101392.28
2022-10-19T21:36:25.759Z,101388.06
2022-10-19T21:38:52.241Z,101413.59
2022-10-19T21:41:26.210Z,101387.22
2022-10-19T21:43:54.546Z,101374.06
2022-10-19T21:46:22.366Z,101352.81
2022-10-19T21:48:50.118Z,101376.59
2022-10-19T21:51:21.160Z,101358.75
2022-10-19T21:53:47.777Z,101333.78
2022-10-19T21:56:15.876Z,101347.59
2022-10-19T21:58:46.840Z,101399.41
2022-10-19T22:01:13.825Z,101343.34
2022-10-19T22:03:40.567Z,101388.59
2022-10-19T22:06:07.746Z,101293.16
2022-10-19T22:08:34.437Z,101319.72
2022-10-19T22:11:08.271Z,101311.94
2022-10-19T22:13:35.839Z,101359.75
2022-10-19T22:16:29.557Z,101393.50
2022-10-19T22:18:56.743Z,101396.19
2022-10-19T22:21:25.960Z,101303.50
2022-10-19T22:23:54.427Z,101334.09
2022-10-19T22:26:29.773Z,101344.00
2022-10-19T22:29:00.581Z,101369.66
2022-10-19T22:31:29.154Z,101268.84
2022-10-19T22:33:55.889Z,101294.69
2022-10-19T22:36:22.421Z,101351.19
2022-10-19T22:38:48.938Z,101319.81
2022-10-19T22:41:17.871Z,101313.31
2022-10-19T22:43:44.437Z,101295.25
2022-10-19T22:46:10.932Z,101334.56
2022-10-19T22:48:37.439Z,101266.03
2022-10-19T22:51:04.060Z,101265.38
2022-10-19T22:53:30.833Z,101235.50
2022-10-19T22:55:57.332Z,101268.53
2022-10-19T22:58:23.849Z,101278.78
2022-10-19T23:01:06.519Z,101291.09
2022-10-19T23:03:33.561Z,101236.25
2022-10-19T23:06:03.428Z,101208.97
2022-10-19T23:08:37.848Z,101191.00
2022-10-19T23:11:04.738Z,101243.78
2022-10-19T23:13:31.883Z,101261.97
2022-10-19T23:15:58.384Z,101187.59
2022-10-19T23:18:24.861Z,101257.06
2022-10-19T23:20:59.631Z,101277.03
2022-10-19T23:23:27.512Z,101283.09
2022-10-19T23:26:12.210Z,101221.38
2022-10-19T23:28:43.280Z,101258.09
2022-10-19T23:31:30.723Z,101237.81
2022-10-19T23:33:57.375Z,101194.94
2022-10-19T23:36:28.848Z,101262.28
2022-10-19T23:38:57.181Z,101264.63
2022-10-19T23:41:23.813Z,101241.16
2022-10-19T23:43:50.436Z,101185.94
2022-10-19T23:46:19.364Z,101199.28
2022-10-19T23:48:46.087Z,101162.56
2022-10-19T23:51:15.966Z,101170.75
2022-10-19T23:53:44.753Z,101221.97
2022-10-19T23:56:20.601Z,101253.31
2022-10-19T23:58:47.682Z,101190.22
